sensor_id;sensor_type;location;lat;lon;timestamp;P1;durP1;ratioP1;P2;durP2;ratioP2
29730;SDS011;16639;51.488;0.152;2023-08-17T00:00:51;21.33;;;12.10;;
29730;SDS011;16639;51.488;0.152;2023-08-17T00:03:18;23.52;;;10.85;;
29730;SDS011;16639;51.488;0.152;2023-08-17T00:05:46;17.85;;;9.82;;
29730;SDS011;16639;51.488;0.152;2023-08-17T00:08:13;21.90;;;12.05;;
29730;SDS011;16639;51.488;0.152;2023-08-17T00:10:41;18.50;;;11.02;;
29730;SDS011;16639;51.488;0.152;2023-08-17T00:13:08;20.13;;;11.80;;
29730;SDS011;16639;51.488;0.152;2023-08-17T00:15:36;25.20;;;12.88;;
29730;SDS011;16639;51.488;0.152;2023-08-17T00:18:03;18.38;;;12.65;;
29730;SDS011;16639;51.488;0.152;2023-08-17T00:20:31;19.73;;;12.60;;
29730;SDS011;16639;51.488;0.152;2023-08-17T00:22:59;20.42;;;13.98;;
29730;SDS011;16639;51.488;0.152;2023-08-17T00:25:26;22.55;;;12.85;;
29730;SDS011;16639;51.488;0.152;2023-08-17T00:27:53;28.35;;;15.27;;
29730;SDS011;16639;51.488;0.152;2023-08-17T00:30:21;29.77;;;15.38;;
29730;SDS011;16639;51.488;0.152;2023-08-17T00:32:48;21.75;;;13.63;;
29730;SDS011;16639;51.488;0.152;2023-08-17T00:35:16;25.98;;;14.88;;
29730;SDS011;16639;51.488;0.152;2023-08-17T00:37:43;32.30;;;16.55;;
29730;SDS011;16639;51.488;0.152;2023-08-17T00:40:11;36.60;;;16.48;;
29730;SDS011;16639;51.488;0.152;2023-08-17T00:42:38;38.90;;;17.45;;
29730;SDS011;16639;51.488;0.152;2023-08-17T00:45:06;29.35;;;14.98;;
29730;SDS011;16639;51.488;0.152;2023-08-17T00:47:34;31.70;;;14.20;;
29730;SDS011;16639;51.488;0.152;2023-08-17T00:50:02;20.85;;;13.25;;
29730;SDS011;16639;51.488;0.152;2023-08-17T00:52:30;24.60;;;13.55;;
29730;SDS011;16639;51.488;0.152;2023-08-17T00:55:00;25.45;;;12.55;;
29730;SDS011;16639;51.488;0.152;2023-08-17T00:57:29;21.30;;;13.73;;
29730;SDS011;16639;51.488;0.152;2023-08-17T00:59:58;23.75;;;12.95;;
29730;SDS011;16639;51.488;0.152;2023-08-17T01:02:32;20.08;;;11.35;;
29730;SDS011;16639;51.488;0.152;2023-08-17T01:05:00;20.35;;;13.38;;
29730;SDS011;16639;51.488;0.152;2023-08-17T01:07:27;19.33;;;12.43;;
29730;SDS011;16639;51.488;0.152;2023-08-17T01:09:55;15.93;;;10.60;;
29730;SDS011;16639;51.488;0.152;2023-08-17T01:14:56;21.10;;;13.77;;
29730;SDS011;16639;51.488;0.152;2023-08-17T01:17:44;19.67;;;13.82;;
29730;SDS011;16639;51.488;0.152;2023-08-17T01:20:23;21.48;;;11.38;;
29730;SDS011;16639;51.488;0.152;2023-08-17T01:22:55;31.55;;;14.32;;
29730;SDS011;16639;51.488;0.152;2023-08-17T01:25:25;24.35;;;13.48;;
29730;SDS011;16639;51.488;0.152;2023-08-17T01:27:52;19.25;;;13.93;;
29730;SDS011;16639;51.488;0.152;2023-08-17T01:30:20;20.55;;;13.30;;
29730;SDS011;16639;51.488;0.152;2023-08-17T01:32:51;20.27;;;12.55;;
29730;SDS011;16639;51.488;0.152;2023-08-17T01:35:30;21.25;;;12.43;;
29730;SDS011;16639;51.488;0.152;2023-08-17T01:38:16;21.30;;;12.07;;
29730;SDS011;16639;51.488;0.152;2023-08-17T01:40:46;22.27;;;12.30;;
29730;SDS011;16639;51.488;0.152;2023-08-17T01:43:16;22.35;;;12.45;;
29730;SDS011;16639;51.488;0.152;2023-08-17T01:45:44;22.35;;;12.48;;
29730;SDS011;16639;51.488;0.152;2023-08-17T01:48:13;26.98;;;11.55;;
29730;SDS011;16639;51.488;0.152;2023-08-17T01:50:40;20.65;;;11.30;;
29730;SDS011;16639;51.488;0.152;2023-08-17T01:53:08;23.25;;;10.93;;
29730;SDS011;16639;51.488;0.152;2023-08-17T01:55:36;18.23;;;10.48;;
29730;SDS011;16639;51.488;0.152;2023-08-17T01:58:04;17.25;;;10.13;;
29730;SDS011;16639;51.488;0.152;2023-08-17T02:00:31;15.15;;;10.02;;
29730;SDS011;16639;51.488;0.152;2023-08-17T02:02:59;16.25;;;9.60;;
29730;SDS011;16639;51.488;0.152;2023-08-17T02:05:26;15.50;;;9.50;;
29730;SDS011;16639;51.488;0.152;2023-08-17T02:07:56;13.55;;;10.23;;
29730;SDS011;16639;51.488;0.152;2023-08-17T02:10:23;16.98;;;8.63;;
29730;SDS011;16639;51.488;0.152;2023-08-17T02:12:50;14.05;;;8.63;;
29730;SDS011;16639;51.488;0.152;2023-08-17T02:15:27;18.92;;;8.50;;
29730;SDS011;16639;51.488;0.152;2023-08-17T02:17:55;21.52;;;8.55;;
29730;SDS011;16639;51.488;0.152;2023-08-17T02:20:23;17.85;;;8.40;;
29730;SDS011;16639;51.488;0.152;2023-08-17T02:22:51;25.38;;;11.07;;
29730;SDS011;16639;51.488;0.152;2023-08-17T02:25:18;16.02;;;8.82;;
29730;SDS011;16639;51.488;0.152;2023-08-17T02:27:45;22.75;;;8.88;;
29730;SDS011;16639;51.488;0.152;2023-08-17T02:30:13;18.23;;;8.70;;
29730;SDS011;16639;51.488;0.152;2023-08-17T02:32:40;16.92;;;9.65;;
29730;SDS011;16639;51.488;0.152;2023-08-17T02:35:08;15.98;;;8.50;;
29730;SDS011;16639;51.488;0.152;2023-08-17T02:37:35;16.08;;;8.40;;
29730;SDS011;16639;51.488;0.152;2023-08-17T02:40:03;25.08;;;8.80;;
29730;SDS011;16639;51.488;0.152;2023-08-17T02:42:31;19.70;;;8.73;;
29730;SDS011;16639;51.488;0.152;2023-08-17T02:44:58;16.35;;;8.48;;
29730;SDS011;16639;51.488;0.152;2023-08-17T02:47:25;18.20;;;8.60;;
29730;SDS011;16639;51.488;0.152;2023-08-17T02:49:53;22.85;;;9.00;;
29730;SDS011;16639;51.488;0.152;2023-08-17T02:52:21;20.60;;;8.15;;
29730;SDS011;16639;51.488;0.152;2023-08-17T02:54:48;12.98;;;7.45;;
29730;SDS011;16639;51.488;0.152;2023-08-17T02:57:15;12.68;;;7.10;;
29730;SDS011;16639;51.488;0.152;2023-08-17T02:59:43;13.77;;;7.60;;
29730;SDS011;16639;51.488;0.152;2023-08-17T03:02:10;14.30;;;8.00;;
29730;SDS011;16639;51.488;0.152;2023-08-17T03:04:38;13.25;;;7.82;;
29730;SDS011;16639;51.488;0.152;2023-08-17T03:07:05;21.58;;;8.30;;
29730;SDS011;16639;51.488;0.152;2023-08-17T03:09:32;15.15;;;7.07;;
29730;SDS011;16639;51.488;0.152;2023-08-17T03:12:00;17.70;;;6.78;;
29730;SDS011;16639;51.488;0.152;2023-08-17T03:14:27;20.67;;;7.43;;
29730;SDS011;16639;51.488;0.152;2023-08-17T03:16:55;15.60;;;7.20;;
29730;SDS011;16639;51.488;0.152;2023-08-17T03:19:22;13.05;;;7.32;;
29730;SDS011;16639;51.488;0.152;2023-08-17T03:21:50;14.90;;;6.07;;
29730;SDS011;16639;51.488;0.152;2023-08-17T03:24:17;19.00;;;7.43;;
29730;SDS011;16639;51.488;0.152;2023-08-17T03:26:44;19.20;;;6.43;;
29730;SDS011;16639;51.488;0.152;2023-08-17T03:29:12;15.68;;;7.05;;
29730;SDS011;16639;51.488;0.152;2023-08-17T03:31:39;21.15;;;7.45;;
29730;SDS011;16639;51.488;0.152;2023-08-17T03:34:07;14.15;;;6.78;;
29730;SDS011;16639;51.488;0.152;2023-08-17T03:36:34;16.15;;;6.95;;
29730;SDS011;16639;51.488;0.152;2023-08-17T03:39:02;10.05;;;6.13;;
29730;SDS011;16639;51.488;0.152;2023-08-17T03:41:30;11.90;;;5.95;;
29730;SDS011;16639;51.488;0.152;2023-08-17T03:43:57;22.85;;;6.05;;
29730;SDS011;16639;51.488;0.152;2023-08-17T03:46:25;13.57;;;5.90;;
29730;SDS011;16639;51.488;0.152;2023-08-17T03:48:52;20.15;;;5.90;;
29730;SDS011;16639;51.488;0.152;2023-08-17T03:51:20;13.52;;;6.18;;
29730;SDS011;16639;51.488;0.152;2023-08-17T03:53:47;22.58;;;7.03;;
29730;SDS011;16639;51.488;0.152;2023-08-17T03:56:14;17.88;;;6.75;;
29730;SDS011;16639;51.488;0.152;2023-08-17T03:58:42;19.88;;;6.20;;
29730;SDS011;16639;51.488;0.152;2023-08-17T04:01:10;17.50;;;7.30;;
29730;SDS011;16639;51.488;0.152;2023-08-17T04:03:38;21.02;;;5.50;;
29730;SDS011;16639;51.488;0.152;2023-08-17T04:06:05;18.63;;;4.80;;
29730;SDS011;16639;51.488;0.152;2023-08-17T04:08:37;11.90;;;4.47;;
29730;SDS011;16639;51.488;0.152;2023-08-17T04:11:05;14.88;;;4.68;;
29730;SDS011;16639;51.488;0.152;2023-08-17T04:13:32;16.73;;;4.90;;
29730;SDS011;16639;51.488;0.152;2023-08-17T04:16:00;15.68;;;4.07;;
29730;SDS011;16639;51.488;0.152;2023-08-17T04:18:27;16.65;;;4.72;;
29730;SDS011;16639;51.488;0.152;2023-08-17T04:20:54;10.07;;;3.95;;
29730;SDS011;16639;51.488;0.152;2023-08-17T04:23:22;14.10;;;4.07;;
29730;SDS011;16639;51.488;0.152;2023-08-17T04:25:49;15.55;;;4.30;;
29730;SDS011;16639;51.488;0.152;2023-08-17T04:28:17;12.43;;;4.03;;
29730;SDS011;16639;51.488;0.152;2023-08-17T04:30:44;11.75;;;4.22;;
29730;SDS011;16639;51.488;0.152;2023-08-17T04:33:12;14.75;;;5.07;;
29730;SDS011;16639;51.488;0.152;2023-08-17T04:35:39;13.70;;;4.57;;
29730;SDS011;16639;51.488;0.152;2023-08-17T04:38:07;19.40;;;5.32;;
29730;SDS011;16639;51.488;0.152;2023-08-17T04:40:34;17.58;;;6.28;;
29730;SDS011;16639;51.488;0.152;2023-08-17T04:43:01;16.13;;;5.32;;
29730;SDS011;16639;51.488;0.152;2023-08-17T04:45:29;11.80;;;4.60;;
29730;SDS011;16639;51.488;0.152;2023-08-17T04:47:56;14.80;;;5.20;;
29730;SDS011;16639;51.488;0.152;2023-08-17T04:50:24;7.90;;;4.28;;
29730;SDS011;16639;51.488;0.152;2023-08-17T04:52:51;12.02;;;5.07;;
29730;SDS011;16639;51.488;0.152;2023-08-17T04:55:18;14.48;;;5.30;;
29730;SDS011;16639;51.488;0.152;2023-08-17T04:57:48;13.38;;;4.43;;
29730;SDS011;16639;51.488;0.152;2023-08-17T05:00:15;17.63;;;5.45;;
29730;SDS011;16639;51.488;0.152;2023-08-17T05:02:43;14.20;;;4.85;;
29730;SDS011;16639;51.488;0.152;2023-08-17T05:05:10;15.30;;;4.95;;
29730;SDS011;16639;51.488;0.152;2023-08-17T05:07:38;18.85;;;5.55;;
29730;SDS011;16639;51.488;0.152;2023-08-17T05:10:05;22.13;;;7.68;;
29730;SDS011;16639;51.488;0.152;2023-08-17T05:12:33;21.40;;;6.15;;
29730;SDS011;16639;51.488;0.152;2023-08-17T05:15:00;14.07;;;5.35;;
29730;SDS011;16639;51.488;0.152;2023-08-17T05:17:27;14.70;;;6.65;;
29730;SDS011;16639;51.488;0.152;2023-08-17T05:19:55;18.25;;;6.05;;
29730;SDS011;16639;51.488;0.152;2023-08-17T05:22:22;24.35;;;6.25;;
29730;SDS011;16639;51.488;0.152;2023-08-17T05:24:50;13.15;;;5.82;;
29730;SDS011;16639;51.488;0.152;2023-08-17T05:27:18;21.65;;;6.38;;
29730;SDS011;16639;51.488;0.152;2023-08-17T05:29:45;12.07;;;6.20;;
29730;SDS011;16639;51.488;0.152;2023-08-17T05:32:12;12.88;;;5.85;;
29730;SDS011;16639;51.488;0.152;2023-08-17T05:34:40;12.02;;;5.82;;
29730;SDS011;16639;51.488;0.152;2023-08-17T05:37:07;19.08;;;4.63;;
29730;SDS011;16639;51.488;0.152;2023-08-17T05:39:35;18.88;;;5.40;;
29730;SDS011;16639;51.488;0.152;2023-08-17T05:42:02;14.85;;;5.40;;
29730;SDS011;16639;51.488;0.152;2023-08-17T05:44:30;22.40;;;5.72;;
29730;SDS011;16639;51.488;0.152;2023-08-17T05:46:57;16.25;;;5.22;;
29730;SDS011;16639;51.488;0.152;2023-08-17T05:49:25;16.75;;;5.55;;
29730;SDS011;16639;51.488;0.152;2023-08-17T05:51:52;19.63;;;6.28;;
29730;SDS011;16639;51.488;0.152;2023-08-17T05:54:19;17.85;;;6.20;;
29730;SDS011;16639;51.488;0.152;2023-08-17T05:56:47;16.92;;;6.07;;
29730;SDS011;16639;51.488;0.152;2023-08-17T05:59:14;12.65;;;5.05;;
29730;SDS011;16639;51.488;0.152;2023-08-17T06:01:42;14.07;;;5.68;;
29730;SDS011;16639;51.488;0.152;2023-08-17T06:04:09;9.48;;;4.47;;
29730;SDS011;16639;51.488;0.152;2023-08-17T06:06:36;17.00;;;5.47;;
29730;SDS011;16639;51.488;0.152;2023-08-17T06:09:04;14.77;;;5.60;;
29730;SDS011;16639;51.488;0.152;2023-08-17T06:11:31;13.50;;;5.03;;
29730;SDS011;16639;51.488;0.152;2023-08-17T06:13:58;16.77;;;6.28;;
29730;SDS011;16639;51.488;0.152;2023-08-17T06:16:26;16.63;;;5.40;;
29730;SDS011;16639;51.488;0.152;2023-08-17T06:18:53;12.77;;;5.72;;
29730;SDS011;16639;51.488;0.152;2023-08-17T06:21:21;12.65;;;5.80;;
29730;SDS011;16639;51.488;0.152;2023-08-17T06:23:48;18.50;;;5.60;;
29730;SDS011;16639;51.488;0.152;2023-08-17T06:26:16;17.83;;;6.80;;
29730;SDS011;16639;51.488;0.152;2023-08-17T06:28:43;21.42;;;7.15;;
29730;SDS011;16639;51.488;0.152;2023-08-17T06:31:10;19.30;;;7.65;;
29730;SDS011;16639;51.488;0.152;2023-08-17T06:33:42;15.75;;;6.80;;
29730;SDS011;16639;51.488;0.152;2023-08-17T06:36:09;14.68;;;5.50;;
29730;SDS011;16639;51.488;0.152;2023-08-17T06:38:40;17.27;;;6.35;;
29730;SDS011;16639;51.488;0.152;2023-08-17T06:41:07;23.30;;;6.50;;
29730;SDS011;16639;51.488;0.152;2023-08-17T06:43:34;17.20;;;5.20;;
29730;SDS011;16639;51.488;0.152;2023-08-17T06:46:02;22.20;;;6.35;;
29730;SDS011;16639;51.488;0.152;2023-08-17T06:48:30;9.52;;;3.88;;
29730;SDS011;16639;51.488;0.152;2023-08-17T06:50:58;14.65;;;4.50;;
29730;SDS011;16639;51.488;0.152;2023-08-17T06:53:25;21.17;;;4.95;;
29730;SDS011;16639;51.488;0.152;2023-08-17T06:55:53;9.80;;;4.47;;
29730;SDS011;16639;51.488;0.152;2023-08-17T06:58:20;9.23;;;4.35;;
29730;SDS011;16639;51.488;0.152;2023-08-17T07:00:48;11.90;;;5.15;;
29730;SDS011;16639;51.488;0.152;2023-08-17T07:03:15;11.68;;;4.70;;
29730;SDS011;16639;51.488;0.152;2023-08-17T07:05:43;15.05;;;4.80;;
29730;SDS011;16639;51.488;0.152;2023-08-17T07:08:11;11.68;;;4.72;;
29730;SDS011;16639;51.488;0.152;2023-08-17T07:10:38;19.38;;;5.72;;
29730;SDS011;16639;51.488;0.152;2023-08-17T07:13:06;8.85;;;4.28;;
29730;SDS011;16639;51.488;0.152;2023-08-17T07:15:33;14.55;;;4.43;;
29730;SDS011;16639;51.488;0.152;2023-08-17T07:18:00;17.77;;;5.32;;
29730;SDS011;16639;51.488;0.152;2023-08-17T07:20:28;14.35;;;4.22;;
29730;SDS011;16639;51.488;0.152;2023-08-17T07:22:55;17.17;;;4.60;;
29730;SDS011;16639;51.488;0.152;2023-08-17T07:25:23;15.57;;;4.75;;
29730;SDS011;16639;51.488;0.152;2023-08-17T07:27:51;10.15;;;5.10;;
29730;SDS011;16639;51.488;0.152;2023-08-17T07:30:21;12.38;;;4.82;;
29730;SDS011;16639;51.488;0.152;2023-08-17T07:32:49;23.50;;;5.53;;
29730;SDS011;16639;51.488;0.152;2023-08-17T07:35:16;19.10;;;5.10;;
29730;SDS011;16639;51.488;0.152;2023-08-17T07:37:46;17.77;;;4.63;;
29730;SDS011;16639;51.488;0.152;2023-08-17T07:40:33;16.17;;;6.03;;
29730;SDS011;16639;51.488;0.152;2023-08-17T07:43:00;17.80;;;5.03;;
29730;SDS011;16639;51.488;0.152;2023-08-17T07:45:28;14.63;;;5.20;;
29730;SDS011;16639;51.488;0.152;2023-08-17T07:47:55;29.02;;;6.43;;
29730;SDS011;16639;51.488;0.152;2023-08-17T07:50:23;18.90;;;4.93;;
29730;SDS011;16639;51.488;0.152;2023-08-17T07:52:51;23.38;;;4.63;;
29730;SDS011;16639;51.488;0.152;2023-08-17T07:55:18;17.55;;;4.88;;
29730;SDS011;16639;51.488;0.152;2023-08-17T07:57:46;13.63;;;4.55;;
29730;SDS011;16639;51.488;0.152;2023-08-17T08:00:22;16.40;;;4.28;;
29730;SDS011;16639;51.488;0.152;2023-08-17T08:02:50;21.58;;;4.20;;
29730;SDS011;16639;51.488;0.152;2023-08-17T08:05:17;17.23;;;5.25;;
29730;SDS011;16639;51.488;0.152;2023-08-17T08:07:45;9.80;;;3.47;;
29730;SDS011;16639;51.488;0.152;2023-08-17T08:10:13;11.02;;;3.92;;
29730;SDS011;16639;51.488;0.152;2023-08-17T08:12:40;14.15;;;3.75;;
29730;SDS011;16639;51.488;0.152;2023-08-17T08:15:08;13.52;;;4.10;;
29730;SDS011;16639;51.488;0.152;2023-08-17T08:17:35;12.10;;;3.42;;
29730;SDS011;16639;51.488;0.152;2023-08-17T08:20:04;13.00;;;3.28;;
29730;SDS011;16639;51.488;0.152;2023-08-17T08:22:32;8.82;;;3.22;;
29730;SDS011;16639;51.488;0.152;2023-08-17T08:24:59;9.93;;;3.58;;
29730;SDS011;16639;51.488;0.152;2023-08-17T08:27:27;17.15;;;3.75;;
29730;SDS011;16639;51.488;0.152;2023-08-17T08:29:59;13.45;;;3.90;;
29730;SDS011;16639;51.488;0.152;2023-08-17T08:32:26;18.08;;;4.20;;
29730;SDS011;16639;51.488;0.152;2023-08-17T08:34:56;17.83;;;4.15;;
29730;SDS011;16639;51.488;0.152;2023-08-17T08:37:23;12.32;;;3.60;;
29730;SDS011;16639;51.488;0.152;2023-08-17T08:39:52;18.05;;;3.60;;
29730;SDS011;16639;51.488;0.152;2023-08-17T08:42:21;17.23;;;5.00;;
29730;SDS011;16639;51.488;0.152;2023-08-17T08:44:50;22.30;;;4.03;;
29730;SDS011;16639;51.488;0.152;2023-08-17T08:47:17;9.57;;;3.60;;
29730;SDS011;16639;51.488;0.152;2023-08-17T08:52:28;7.20;;;3.42;;
29730;SDS011;16639;51.488;0.152;2023-08-17T08:55:11;7.85;;;2.47;;
29730;SDS011;16639;51.488;0.152;2023-08-17T08:57:42;14.98;;;3.17;;
29730;SDS011;16639;51.488;0.152;2023-08-17T09:00:11;8.02;;;2.78;;
29730;SDS011;16639;51.488;0.152;2023-08-17T09:02:39;15.35;;;3.28;;
29730;SDS011;16639;51.488;0.152;2023-08-17T09:05:09;10.45;;;2.88;;
29730;SDS011;16639;51.488;0.152;2023-08-17T09:07:38;11.65;;;2.35;;
29730;SDS011;16639;51.488;0.152;2023-08-17T09:10:06;8.73;;;3.33;;
29730;SDS011;16639;51.488;0.152;2023-08-17T09:12:35;7.15;;;3.20;;
29730;SDS011;16639;51.488;0.152;2023-08-17T09:15:07;17.45;;;3.50;;
29730;SDS011;16639;51.488;0.152;2023-08-17T09:17:38;13.25;;;3.50;;
29730;SDS011;16639;51.488;0.152;2023-08-17T09:20:06;12.23;;;3.53;;
29730;SDS011;16639;51.488;0.152;2023-08-17T09:22:41;20.67;;;4.53;;
29730;SDS011;16639;51.488;0.152;2023-08-17T09:25:10;13.82;;;3.30;;
29730;SDS011;16639;51.488;0.152;2023-08-17T09:27:38;11.57;;;2.72;;
29730;SDS011;16639;51.488;0.152;2023-08-17T09:30:11;6.97;;;2.72;;
29730;SDS011;16639;51.488;0.152;2023-08-17T09:32:38;16.65;;;3.97;;
29730;SDS011;16639;51.488;0.152;2023-08-17T09:35:08;14.30;;;3.53;;
29730;SDS011;16639;51.488;0.152;2023-08-17T09:37:35;9.23;;;3.03;;
29730;SDS011;16639;51.488;0.152;2023-08-17T09:40:03;8.02;;;2.40;;
29730;SDS011;16639;51.488;0.152;2023-08-17T09:42:34;4.18;;;2.42;;
29730;SDS011;16639;51.488;0.152;2023-08-17T09:45:02;10.00;;;2.60;;
29730;SDS011;16639;51.488;0.152;2023-08-17T09:47:30;13.30;;;2.47;;
29730;SDS011;16639;51.488;0.152;2023-08-17T09:49:57;8.30;;;2.97;;
29730;SDS011;16639;51.488;0.152;2023-08-17T09:52:25;8.05;;;2.95;;
29730;SDS011;16639;51.488;0.152;2023-08-17T09:54:53;7.38;;;2.60;;
29730;SDS011;16639;51.488;0.152;2023-08-17T09:57:21;16.10;;;2.92;;
29730;SDS011;16639;51.488;0.152;2023-08-17T09:59:50;10.68;;;3.03;;
29730;SDS011;16639;51.488;0.152;2023-08-17T10:02:22;6.05;;;2.63;;
29730;SDS011;16639;51.488;0.152;2023-08-17T10:04:53;11.88;;;2.90;;
29730;SDS011;16639;51.488;0.152;2023-08-17T10:07:24;6.28;;;2.53;;
29730;SDS011;16639;51.488;0.152;2023-08-17T10:10:03;10.48;;;2.47;;
29730;SDS011;16639;51.488;0.152;2023-08-17T10:12:37;11.43;;;3.40;;
29730;SDS011;16639;51.488;0.152;2023-08-17T10:15:13;10.68;;;3.33;;
29730;SDS011;16639;51.488;0.152;2023-08-17T10:20:41;12.45;;;3.10;;
29730;SDS011;16639;51.488;0.152;2023-08-17T10:23:16;5.80;;;2.47;;
29730;SDS011;16639;51.488;0.152;2023-08-17T10:25:45;5.82;;;2.15;;
29730;SDS011;16639;51.488;0.152;2023-08-17T10:28:17;9.93;;;2.97;;
29730;SDS011;16639;51.488;0.152;2023-08-17T10:30:45;7.95;;;2.50;;
29730;SDS011;16639;51.488;0.152;2023-08-17T10:33:14;3.28;;;1.90;;
29730;SDS011;16639;51.488;0.152;2023-08-17T10:35:42;9.82;;;3.03;;
29730;SDS011;16639;51.488;0.152;2023-08-17T10:38:11;13.45;;;2.75;;
29730;SDS011;16639;51.488;0.152;2023-08-17T10:40:40;7.20;;;2.42;;
29730;SDS011;16639;51.488;0.152;2023-08-17T10:43:09;7.63;;;2.50;;
29730;SDS011;16639;51.488;0.152;2023-08-17T10:45:38;7.57;;;2.65;;
29730;SDS011;16639;51.488;0.152;2023-08-17T10:50:36;5.82;;;2.10;;
29730;SDS011;16639;51.488;0.152;2023-08-17T10:53:11;6.65;;;2.50;;
29730;SDS011;16639;51.488;0.152;2023-08-17T10:55:40;5.95;;;2.22;;
29730;SDS011;16639;51.488;0.152;2023-08-17T10:58:11;11.93;;;2.22;;
29730;SDS011;16639;51.488;0.152;2023-08-17T11:00:42;10.98;;;2.75;;
29730;SDS011;16639;51.488;0.152;2023-08-17T11:03:18;10.40;;;2.90;;
29730;SDS011;16639;51.488;0.152;2023-08-17T11:08:51;8.68;;;2.55;;
29730;SDS011;16639;51.488;0.152;2023-08-17T11:11:23;10.65;;;2.38;;
29730;SDS011;16639;51.488;0.152;2023-08-17T11:13:52;4.70;;;2.25;;
29730;SDS011;16639;51.488;0.152;2023-08-17T11:16:23;10.70;;;2.50;;
29730;SDS011;16639;51.488;0.152;2023-08-17T11:18:51;8.18;;;2.20;;
29730;SDS011;16639;51.488;0.152;2023-08-17T11:21:19;9.35;;;2.20;;
29730;SDS011;16639;51.488;0.152;2023-08-17T11:23:46;5.53;;;2.35;;
29730;SDS011;16639;51.488;0.152;2023-08-17T11:26:15;8.77;;;2.42;;
29730;SDS011;16639;51.488;0.152;2023-08-17T11:28:44;10.32;;;2.65;;
29730;SDS011;16639;51.488;0.152;2023-08-17T11:31:12;9.20;;;2.97;;
29730;SDS011;16639;51.488;0.152;2023-08-17T11:33:43;7.13;;;2.47;;
29730;SDS011;16639;51.488;0.152;2023-08-17T11:36:11;10.07;;;2.65;;
29730;SDS011;16639;51.488;0.152;2023-08-17T11:38:40;7.50;;;2.80;;
29730;SDS011;16639;51.488;0.152;2023-08-17T11:41:09;7.22;;;2.08;;
29730;SDS011;16639;51.488;0.152;2023-08-17T11:43:44;9.45;;;2.60;;
29730;SDS011;16639;51.488;0.152;2023-08-17T11:46:13;15.05;;;3.13;;
29730;SDS011;16639;51.488;0.152;2023-08-17T11:48:42;11.65;;;2.92;;
29730;SDS011;16639;51.488;0.152;2023-08-17T11:51:10;11.38;;;2.70;;
29730;SDS011;16639;51.488;0.152;2023-08-17T11:53:38;8.48;;;2.40;;
29730;SDS011;16639;51.488;0.152;2023-08-17T11:56:07;8.77;;;1.75;;
29730;SDS011;16639;51.488;0.152;2023-08-17T11:58:43;6.18;;;2.33;;
29730;SDS011;16639;51.488;0.152;2023-08-17T12:01:12;8.52;;;2.83;;
29730;SDS011;16639;51.488;0.152;2023-08-17T12:03:43;7.40;;;2.53;;
29730;SDS011;16639;51.488;0.152;2023-08-17T12:06:11;10.88;;;2.50;;
29730;SDS011;16639;51.488;0.152;2023-08-17T12:08:44;14.60;;;3.47;;
29730;SDS011;16639;51.488;0.152;2023-08-17T12:11:15;14.63;;;3.05;;
29730;SDS011;16639;51.488;0.152;2023-08-17T12:13:48;8.70;;;2.67;;
29730;SDS011;16639;51.488;0.152;2023-08-17T12:16:19;9.73;;;2.35;;
29730;SDS011;16639;51.488;0.152;2023-08-17T12:18:48;6.45;;;2.25;;
29730;SDS011;16639;51.488;0.152;2023-08-17T12:21:19;9.02;;;2.85;;
29730;SDS011;16639;51.488;0.152;2023-08-17T12:23:48;7.28;;;2.40;;
29730;SDS011;16639;51.488;0.152;2023-08-17T12:26:19;7.25;;;2.38;;
29730;SDS011;16639;51.488;0.152;2023-08-17T12:28:47;4.35;;;1.58;;
29730;SDS011;16639;51.488;0.152;2023-08-17T12:31:20;10.93;;;2.45;;
29730;SDS011;16639;51.488;0.152;2023-08-17T12:33:50;5.28;;;2.15;;
29730;SDS011;16639;51.488;0.152;2023-08-17T12:36:18;9.05;;;2.33;;
29730;SDS011;16639;51.488;0.152;2023-08-17T12:38:47;6.45;;;2.15;;
29730;SDS011;16639;51.488;0.152;2023-08-17T12:41:15;7.82;;;2.72;;
29730;SDS011;16639;51.488;0.152;2023-08-17T12:43:43;12.52;;;2.92;;
29730;SDS011;16639;51.488;0.152;2023-08-17T12:46:12;6.60;;;2.40;;
29730;SDS011;16639;51.488;0.152;2023-08-17T12:48:40;6.82;;;2.40;;
29730;SDS011;16639;51.488;0.152;2023-08-17T12:51:08;17.58;;;2.30;;
29730;SDS011;16639;51.488;0.152;2023-08-17T12:53:36;4.15;;;1.70;;
29730;SDS011;16639;51.488;0.152;2023-08-17T12:56:04;6.65;;;2.40;;
29730;SDS011;16639;51.488;0.152;2023-08-17T12:58:31;10.18;;;2.45;;
29730;SDS011;16639;51.488;0.152;2023-08-17T13:00:59;7.25;;;2.70;;
29730;SDS011;16639;51.488;0.152;2023-08-17T13:03:26;6.28;;;2.42;;
29730;SDS011;16639;51.488;0.152;2023-08-17T13:05:54;10.30;;;2.22;;
29730;SDS011;16639;51.488;0.152;2023-08-17T13:08:21;7.05;;;1.90;;
29730;SDS011;16639;51.488;0.152;2023-08-17T13:10:49;11.07;;;1.80;;
29730;SDS011;16639;51.488;0.152;2023-08-17T13:13:16;8.80;;;2.22;;
29730;SDS011;16639;51.488;0.152;2023-08-17T13:15:44;5.63;;;2.13;;
29730;SDS011;16639;51.488;0.152;2023-08-17T13:18:12;5.32;;;2.25;;
29730;SDS011;16639;51.488;0.152;2023-08-17T13:20:39;13.18;;;2.35;;
29730;SDS011;16639;51.488;0.152;2023-08-17T13:23:07;8.05;;;2.10;;
29730;SDS011;16639;51.488;0.152;2023-08-17T13:25:34;4.50;;;2.00;;
29730;SDS011;16639;51.488;0.152;2023-08-17T13:28:02;3.53;;;2.00;;
29730;SDS011;16639;51.488;0.152;2023-08-17T13:30:30;5.13;;;2.05;;
29730;SDS011;16639;51.488;0.152;2023-08-17T13:32:57;5.45;;;2.38;;
29730;SDS011;16639;51.488;0.152;2023-08-17T13:35:25;6.30;;;2.05;;
29730;SDS011;16639;51.488;0.152;2023-08-17T13:37:52;6.13;;;2.13;;
29730;SDS011;16639;51.488;0.152;2023-08-17T13:40:24;8.63;;;1.95;;
29730;SDS011;16639;51.488;0.152;2023-08-17T13:42:52;10.32;;;2.63;;
29730;SDS011;16639;51.488;0.152;2023-08-17T13:45:19;6.18;;;2.00;;
29730;SDS011;16639;51.488;0.152;2023-08-17T13:47:47;9.77;;;2.10;;
29730;SDS011;16639;51.488;0.152;2023-08-17T13:50:15;7.47;;;1.60;;
29730;SDS011;16639;51.488;0.152;2023-08-17T13:52:45;8.05;;;2.65;;
29730;SDS011;16639;51.488;0.152;2023-08-17T13:55:13;5.07;;;1.88;;
29730;SDS011;16639;51.488;0.152;2023-08-17T13:57:44;3.33;;;1.83;;
29730;SDS011;16639;51.488;0.152;2023-08-17T14:00:12;4.03;;;2.03;;
29730;SDS011;16639;51.488;0.152;2023-08-17T14:02:39;10.70;;;2.20;;
29730;SDS011;16639;51.488;0.152;2023-08-17T14:05:07;5.80;;;1.90;;
29730;SDS011;16639;51.488;0.152;2023-08-17T14:07:34;9.13;;;1.80;;
29730;SDS011;16639;51.488;0.152;2023-08-17T14:10:02;5.75;;;2.45;;
29730;SDS011;16639;51.488;0.152;2023-08-17T14:12:39;19.10;;;2.80;;
29730;SDS011;16639;51.488;0.152;2023-08-17T14:15:07;6.47;;;2.25;;
29730;SDS011;16639;51.488;0.152;2023-08-17T14:17:34;10.40;;;2.20;;
29730;SDS011;16639;51.488;0.152;2023-08-17T14:20:02;4.55;;;2.10;;
29730;SDS011;16639;51.488;0.152;2023-08-17T14:22:31;7.57;;;2.50;;
29730;SDS011;16639;51.488;0.152;2023-08-17T14:24:59;5.93;;;1.65;;
29730;SDS011;16639;51.488;0.152;2023-08-17T14:27:26;9.93;;;2.15;;
29730;SDS011;16639;51.488;0.152;2023-08-17T14:29:54;5.10;;;2.20;;
29730;SDS011;16639;51.488;0.152;2023-08-17T14:32:22;3.92;;;2.35;;
29730;SDS011;16639;51.488;0.152;2023-08-17T14:34:50;3.75;;;1.95;;
29730;SDS011;16639;51.488;0.152;2023-08-17T14:37:18;7.18;;;1.95;;
29730;SDS011;16639;51.488;0.152;2023-08-17T14:39:50;6.28;;;1.73;;
29730;SDS011;16639;51.488;0.152;2023-08-17T14:42:19;9.93;;;2.20;;
29730;SDS011;16639;51.488;0.152;2023-08-17T14:44:46;7.60;;;2.00;;
29730;SDS011;16639;51.488;0.152;2023-08-17T14:47:14;6.30;;;1.85;;
29730;SDS011;16639;51.488;0.152;2023-08-17T14:49:46;5.15;;;1.80;;
29730;SDS011;16639;51.488;0.152;2023-08-17T14:52:13;4.85;;;1.95;;
29730;SDS011;16639;51.488;0.152;2023-08-17T14:54:41;2.72;;;1.90;;
29730;SDS011;16639;51.488;0.152;2023-08-17T14:57:09;25.08;;;5.97;;